createdAt,value
2018-05-17T00:00:18.742Z,11.07
2018-05-17T00:07:31.639Z,9.63
2018-05-17T00:10:01.094Z,10.13
2018-05-17T00:17:04.485Z,8.77
2018-05-17T00:22:08.524Z,9.50
2018-05-17T00:24:38.139Z,9.70
2018-05-17T00:31:41.453Z,8.37
2018-05-17T00:34:10.681Z,8.20
2018-05-17T00:36:40.289Z,7.53
2018-05-17T00:39:10.266Z,8.40
2018-05-17T00:55:15.386Z,8.80
2018-05-17T00:57:44.115Z,7.27
2018-05-17T01:00:15.537Z,6.87
2018-05-17T01:02:43.991Z,6.23
2018-05-17T01:05:13.871Z,6.27
2018-05-17T01:07:43.376Z,5.93
2018-05-17T01:10:15.652Z,5.77
2018-05-17T01:12:45.411Z,4.87
2018-05-17T01:15:16.236Z,5.73
2018-05-17T01:17:45.446Z,6.13
2018-05-17T01:20:18.606Z,5.10
2018-05-17T01:22:48.945Z,5.00
2018-05-17T01:25:30.206Z,5.57
2018-05-17T01:27:58.978Z,4.73
2018-05-17T01:44:03.879Z,5.47
2018-05-17T01:46:33.770Z,5.17
2018-05-17T01:51:35.596Z,4.83
2018-05-17T01:54:04.055Z,4.03
2018-05-17T01:56:34.217Z,4.80
2018-05-17T01:59:02.970Z,4.63
2018-05-17T02:01:37.835Z,4.90
2018-05-17T02:04:17.691Z,4.97
2018-05-17T02:06:47.918Z,4.80
2018-05-17T02:09:17.163Z,5.10
2018-05-17T02:11:46.015Z,4.80
2018-05-17T02:14:25.047Z,4.77
2018-05-17T02:17:04.082Z,5.87
2018-05-17T02:28:32.742Z,4.63
2018-05-17T02:35:31.054Z,5.60
2018-05-17T02:38:11.560Z,5.10
2018-05-17T02:45:25.051Z,5.27
2018-05-17T02:52:52.119Z,5.43
2018-05-17T02:55:22.080Z,5.20
2018-05-17T02:58:01.135Z,6.70
2018-05-17T03:00:41.198Z,6.87
2018-05-17T03:03:14.687Z,5.77
2018-05-17T03:05:53.683Z,6.57
2018-05-17T03:12:57.702Z,5.07
2018-05-17T03:15:26.624Z,6.23
2018-05-17T03:17:56.235Z,5.73
2018-05-17T03:31:58.321Z,5.17
2018-05-17T03:34:28.091Z,6.33
2018-05-17T03:36:57.332Z,6.53
2018-05-17T03:39:29.006Z,6.70
2018-05-17T03:41:57.789Z,6.67
2018-05-17T03:44:39.019Z,5.83
2018-05-17T03:47:08.130Z,6.73
2018-05-17T03:49:46.805Z,7.13
2018-05-17T03:52:16.288Z,6.63
2018-05-17T03:54:44.795Z,5.70
2018-05-17T03:57:24.304Z,5.23
2018-05-17T03:59:53.443Z,5.23
2018-05-17T04:02:37.931Z,5.60
2018-05-17T04:07:18.488Z,5.70
2018-05-17T04:09:57.186Z,5.17
2018-05-17T04:12:26.294Z,6.27
2018-05-17T04:14:54.875Z,4.90
2018-05-17T04:17:24.370Z,5.00
2018-05-17T04:19:53.531Z,5.37
2018-05-17T04:22:32.191Z,4.40
2018-05-17T04:29:34.654Z,5.00
2018-05-17T04:32:03.419Z,6.33
2018-05-17T05:05:39.924Z,5.47
2018-05-17T05:08:13.856Z,5.43
2018-05-17T05:10:53.998Z,6.20
2018-05-17T05:13:23.972Z,6.53
2018-05-17T05:20:26.713Z,7.77
2018-05-17T05:22:56.505Z,5.90
2018-05-17T05:25:26.996Z,5.97
2018-05-17T05:27:56.278Z,6.00
2018-05-17T05:30:25.084Z,5.87
2018-05-17T05:33:29.459Z,5.43
2018-05-17T05:40:28.154Z,6.73
2018-05-17T05:42:57.309Z,5.77
2018-05-17T05:45:30.077Z,6.57
2018-05-17T05:47:59.479Z,5.47
2018-05-17T05:50:32.066Z,6.60
2018-05-17T05:53:01.855Z,6.03
2018-05-17T05:55:34.270Z,5.10
2018-05-17T05:58:14.262Z,6.00
2018-05-17T06:00:42.798Z,6.60
2018-05-17T06:03:12.122Z,5.60
2018-05-17T06:05:41.651Z,6.43
2018-05-17T06:08:21.935Z,4.50
2018-05-17T06:10:51.779Z,6.10
2018-05-17T06:13:21.279Z,5.37
2018-05-17T06:15:50.856Z,5.33
2018-05-17T06:18:20.155Z,5.67
2018-05-17T06:20:49.709Z,5.70
2018-05-17T06:23:20.735Z,5.73
2018-05-17T06:25:51.949Z,6.10
2018-05-17T06:28:21.515Z,5.97
2018-05-17T06:30:51.391Z,6.60
2018-05-17T06:33:21.190Z,5.87
2018-05-17T06:35:53.906Z,4.97
2018-05-17T06:38:22.833Z,5.27
2018-05-17T06:40:56.566Z,6.07
2018-05-17T06:43:26.532Z,6.90
2018-05-17T06:46:00.113Z,5.60
2018-05-17T06:48:28.902Z,6.33
2018-05-17T06:51:02.287Z,5.27
2018-05-17T06:53:32.322Z,5.93
2018-05-17T06:56:05.258Z,5.97
2018-05-17T06:58:33.782Z,5.23
2018-05-17T07:01:07.190Z,5.83
2018-05-17T07:03:36.821Z,5.10
2018-05-17T07:06:19.738Z,5.77
2018-05-17T07:08:48.570Z,6.13
2018-05-17T07:11:17.019Z,5.67
2018-05-17T07:13:46.635Z,5.20
2018-05-17T07:16:16.219Z,4.13
2018-05-17T07:18:46.077Z,6.40
2018-05-17T07:21:26.859Z,5.53
2018-05-17T07:23:56.825Z,5.13
2018-05-17T07:26:26.139Z,5.87
2018-05-17T07:28:55.731Z,5.43
2018-05-17T07:31:25.667Z,4.77
2018-05-17T07:33:54.919Z,5.23
2018-05-17T07:36:24.274Z,5.17
2018-05-17T07:38:54.155Z,5.23
2018-05-17T07:41:27.122Z,6.67
2018-05-17T07:43:56.454Z,4.27
2018-05-17T07:46:28.807Z,5.93
2018-05-17T07:48:57.774Z,5.23
2018-05-17T07:51:39.150Z,5.90
2018-05-17T07:54:09.169Z,5.77
2018-05-17T07:56:38.646Z,5.07
2018-05-17T07:59:08.092Z,5.63
2018-05-17T08:01:37.039Z,4.70
2018-05-17T08:04:06.540Z,5.73
2018-05-17T08:06:38.283Z,5.30
2018-05-17T08:09:08.758Z,5.33
2018-05-17T08:11:41.023Z,5.17
2018-05-17T08:14:09.972Z,5.30
2018-05-17T08:16:43.105Z,6.10
2018-05-17T08:19:12.436Z,5.83
2018-05-17T08:21:45.249Z,5.40
2018-05-17T08:24:15.344Z,5.13
2018-05-17T08:26:47.723Z,4.57
2018-05-17T08:29:16.602Z,4.90
2018-05-17T08:31:50.460Z,4.87
2018-05-17T08:34:19.122Z,5.03
2018-05-17T08:36:51.865Z,6.20
2018-05-17T08:39:21.976Z,5.43
2018-05-17T08:41:54.666Z,5.10
2018-05-17T08:44:23.203Z,4.43
2018-05-17T08:47:05.366Z,5.17
2018-05-17T08:49:35.142Z,4.97
2018-05-17T08:52:04.903Z,5.50
2018-05-17T08:54:34.966Z,5.30
2018-05-17T08:57:04.554Z,5.57
2018-05-17T08:59:33.804Z,6.80
2018-05-17T09:02:06.512Z,5.53
2018-05-17T09:04:35.062Z,5.73
2018-05-17T09:07:09.615Z,5.50
2018-05-17T09:09:39.530Z,5.90
2018-05-17T09:12:21.434Z,6.40
2018-05-17T09:14:51.328Z,6.10
2018-05-17T09:17:20.895Z,5.70
2018-05-17T09:19:49.947Z,5.50
2018-05-17T09:22:19.656Z,6.10
2018-05-17T09:24:48.593Z,6.03
2018-05-17T09:27:18.875Z,6.00
2018-05-17T09:29:47.776Z,7.07
2018-05-17T09:32:21.302Z,6.93
2018-05-17T09:34:50.211Z,6.20
2018-05-17T09:37:26.270Z,6.60
2018-05-17T09:39:55.178Z,5.30
2018-05-17T09:42:26.098Z,5.90
2018-05-17T09:44:54.642Z,5.60
2018-05-17T09:47:27.790Z,4.70
2018-05-17T09:49:57.735Z,6.00
2018-05-17T09:52:30.398Z,6.10
2018-05-17T09:55:00.089Z,6.27
2018-05-17T09:57:33.579Z,5.43
2018-05-17T10:00:02.367Z,5.87
2018-05-17T10:02:34.771Z,6.23
2018-05-17T10:05:04.898Z,6.60
2018-05-17T10:07:37.754Z,6.53
2018-05-17T10:10:07.278Z,6.20
2018-05-17T10:12:39.903Z,5.73
2018-05-17T10:15:09.283Z,7.07
2018-05-17T10:17:50.688Z,6.70
2018-05-17T10:20:19.579Z,6.33
2018-05-17T10:22:48.123Z,6.33
2018-05-17T10:25:17.053Z,6.80
2018-05-17T10:27:48.000Z,6.43
2018-05-17T10:30:16.528Z,7.07
2018-05-17T10:32:49.966Z,5.80
2018-05-17T10:35:18.971Z,5.70
2018-05-17T10:37:52.082Z,6.00
2018-05-17T10:40:22.155Z,6.13
2018-05-17T10:42:55.395Z,6.77
2018-05-17T10:45:24.702Z,7.07
2018-05-17T10:47:58.278Z,7.20
2018-05-17T10:50:28.630Z,7.20
2018-05-17T10:53:01.295Z,5.80
2018-05-17T10:55:30.281Z,6.27
2018-05-17T10:58:03.171Z,5.80
2018-05-17T11:00:32.075Z,6.00
2018-05-17T11:03:06.944Z,5.73
2018-05-17T11:05:36.766Z,5.17
2018-05-17T11:08:09.068Z,5.87
2018-05-17T11:10:38.758Z,5.03
2018-05-17T11:13:20.071Z,5.53
2018-05-17T11:28:53.726Z,6.10
2018-05-17T11:31:23.476Z,6.03
2018-05-17T11:33:52.854Z,6.10
2018-05-17T11:36:22.087Z,6.00
2018-05-17T11:38:50.659Z,6.60
2018-05-17T11:41:23.220Z,5.03
2018-05-17T11:43:52.144Z,5.60
2018-05-17T11:46:34.848Z,5.83
2018-05-17T11:49:04.226Z,5.70
2018-05-17T11:51:32.759Z,5.73
2018-05-17T11:54:02.835Z,6.63
2018-05-17T11:56:32.920Z,6.10
2018-05-17T11:59:01.798Z,5.63
2018-05-17T12:01:33.883Z,4.73
2018-05-17T12:04:02.677Z,5.77
2018-05-17T12:06:44.814Z,5.20
2018-05-17T12:09:15.375Z,4.80
2018-05-17T12:11:43.885Z,5.27
2018-05-17T12:14:12.418Z,5.57
2018-05-17T12:16:42.188Z,5.50
2018-05-17T12:19:11.791Z,6.57
2018-05-17T12:21:45.737Z,5.97
2018-05-17T12:24:15.725Z,5.17
2018-05-17T12:26:47.487Z,4.70
2018-05-17T12:29:16.987Z,4.40
2018-05-17T12:31:49.659Z,5.43
2018-05-17T12:34:18.210Z,6.13
2018-05-17T12:37:00.042Z,5.23
2018-05-17T12:39:30.079Z,5.77
2018-05-17T12:41:58.344Z,5.53
2018-05-17T12:44:26.850Z,6.00
2018-05-17T12:46:57.355Z,5.07
2018-05-17T12:49:26.603Z,4.70
2018-05-17T12:51:58.982Z,5.03
2018-05-17T12:54:29.131Z,4.53
2018-05-17T12:57:02.199Z,5.20
2018-05-17T12:59:31.539Z,5.33
2018-05-17T13:02:14.190Z,5.37
2018-05-17T13:04:42.828Z,5.00
2018-05-17T13:07:12.731Z,5.10
2018-05-17T13:09:41.911Z,5.10
2018-05-17T13:12:12.573Z,5.23
2018-05-17T13:14:42.576Z,4.80
2018-05-17T13:17:14.505Z,5.60
2018-05-17T13:19:44.214Z,4.77
2018-05-17T13:22:17.661Z,5.53
2018-05-17T13:24:47.214Z,5.90
2018-05-17T13:27:20.015Z,5.40
2018-05-17T13:29:50.467Z,6.00
2018-05-17T13:32:21.787Z,6.00
2018-05-17T13:34:51.848Z,5.60
2018-05-17T13:37:23.275Z,5.97
2018-05-17T13:39:52.809Z,5.40
2018-05-17T13:42:25.764Z,5.47
2018-05-17T13:44:56.202Z,5.23
2018-05-17T13:47:29.537Z,4.80
2018-05-17T13:50:04.135Z,5.37
2018-05-17T13:52:32.791Z,5.97
2018-05-17T14:08:18.880Z,6.30
2018-05-17T14:10:48.430Z,5.67
2018-05-17T14:13:18.243Z,5.67
2018-05-17T14:15:48.213Z,6.47
2018-05-17T14:18:17.959Z,5.93
2018-05-17T14:20:47.397Z,5.97
2018-05-17T14:23:17.462Z,6.27
2018-05-17T14:25:47.752Z,6.90
2018-05-17T14:28:17.609Z,6.60
2018-05-17T14:30:50.935Z,6.63
2018-05-17T14:33:20.466Z,6.47
2018-05-17T14:35:53.496Z,5.63
2018-05-17T14:38:22.402Z,5.73
2018-05-17T14:40:55.016Z,6.03
2018-05-17T14:43:25.343Z,4.87
2018-05-17T14:46:06.723Z,5.10
2018-05-17T14:48:36.445Z,4.83
2018-05-17T14:51:05.060Z,5.53
2018-05-17T14:53:34.357Z,5.07
2018-05-17T14:56:04.200Z,5.83
2018-05-17T14:58:32.743Z,4.70
2018-05-17T15:01:06.488Z,5.13
2018-05-17T15:03:36.418Z,5.63
2018-05-17T15:06:09.082Z,5.03
2018-05-17T15:08:38.848Z,5.37
2018-05-17T15:11:14.871Z,4.93
2018-05-17T15:13:41.588Z,4.87
2018-05-17T15:16:14.563Z,5.63
2018-05-17T15:18:44.317Z,4.80
2018-05-17T15:21:16.946Z,5.23
2018-05-17T15:23:47.398Z,5.67
2018-05-17T15:26:18.756Z,5.20
2018-05-17T15:28:47.297Z,5.63
2018-05-17T15:31:29.171Z,5.90
2018-05-17T15:33:58.719Z,5.80
2018-05-17T15:36:28.253Z,4.57
2018-05-17T15:38:57.821Z,4.63
2018-05-17T15:41:29.106Z,4.63
2018-05-17T15:43:58.712Z,4.57
2018-05-17T15:46:27.899Z,4.50
2018-05-17T15:48:57.401Z,4.97
2018-05-17T15:51:39.156Z,5.37
2018-05-17T15:54:08.472Z,4.80
2018-05-17T15:56:37.738Z,4.13
2018-05-17T15:59:07.268Z,5.20
2018-05-17T16:01:37.234Z,4.77
2018-05-17T16:04:07.255Z,4.53
2018-05-17T16:06:36.952Z,5.10
2018-05-17T16:09:06.737Z,5.10
2018-05-17T16:11:40.739Z,4.97
2018-05-17T16:14:10.255Z,5.33
2018-05-17T16:16:43.449Z,4.33
2018-05-17T16:19:12.006Z,4.70
2018-05-17T16:21:45.365Z,4.70
2018-05-17T16:24:15.176Z,5.57
2018-05-17T16:26:48.328Z,4.83
2018-05-17T16:29:18.027Z,5.83
2018-05-17T16:32:00.076Z,4.97
2018-05-17T16:34:29.624Z,4.77
2018-05-17T16:36:58.110Z,4.53
2018-05-17T16:39:27.438Z,5.00
2018-05-17T16:41:57.215Z,5.03
2018-05-17T16:44:26.883Z,5.70
2018-05-17T16:47:09.776Z,4.80
2018-05-17T16:49:39.325Z,5.43
2018-05-17T16:52:08.659Z,5.43
2018-05-17T16:54:37.561Z,4.80
2018-05-17T16:57:07.278Z,5.00
2018-05-17T16:59:36.818Z,4.80
2018-05-17T17:02:10.390Z,5.17
2018-05-17T17:04:40.192Z,4.70
2018-05-17T17:07:22.147Z,4.10
2018-05-17T17:09:51.925Z,5.50
2018-05-17T17:12:20.499Z,5.13
2018-05-17T17:14:49.814Z,4.43
2018-05-17T17:17:19.407Z,4.50
2018-05-17T17:19:47.954Z,4.87
2018-05-17T17:22:19.886Z,5.57
2018-05-17T17:24:49.878Z,5.10
2018-05-17T17:27:22.799Z,5.63
2018-05-17T17:29:51.772Z,6.00
2018-05-17T17:32:25.160Z,5.30
2018-05-17T17:34:54.694Z,4.63
2018-05-17T17:37:35.830Z,4.93
2018-05-17T17:40:05.354Z,4.57
2018-05-17T17:42:35.308Z,5.30
2018-05-17T17:45:05.059Z,4.80
2018-05-17T17:47:34.826Z,4.40
2018-05-17T17:50:03.829Z,4.70
2018-05-17T17:55:18.210Z,4.93
2018-05-17T17:57:48.371Z,4.37
2018-05-17T18:00:17.926Z,4.03
2018-05-17T18:02:46.892Z,4.33
2018-05-17T18:05:16.084Z,4.37
2018-05-17T18:07:44.918Z,4.17
2018-05-17T18:10:16.073Z,4.20
2018-05-17T18:12:45.735Z,4.40
2018-05-17T18:15:15.519Z,4.50
2018-05-17T18:17:46.643Z,4.40
2018-05-17T18:20:18.781Z,4.47
2018-05-17T18:22:49.259Z,4.63
2018-05-17T18:25:21.317Z,4.70
2018-05-17T18:27:51.793Z,4.40
2018-05-17T18:30:29.031Z,4.60
2018-05-17T18:33:04.113Z,4.60
2018-05-17T18:35:43.468Z,4.77
2018-05-17T18:38:13.184Z,4.67
2018-05-17T18:40:42.432Z,4.50
2018-05-17T18:43:12.033Z,4.30
2018-05-17T18:45:41.779Z,4.43
2018-05-17T18:48:10.311Z,4.63
2018-05-17T18:50:39.566Z,4.63
2018-05-17T18:53:08.883Z,5.07
2018-05-17T18:55:38.407Z,4.80
2018-05-17T18:58:08.824Z,4.47
2018-05-17T19:00:38.581Z,4.77
2018-05-17T19:03:11.695Z,4.60
2018-05-17T19:05:41.524Z,5.43
2018-05-17T19:08:15.517Z,4.13
2018-05-17T19:10:44.792Z,4.80
2018-05-17T19:13:16.919Z,4.07
2018-05-17T19:15:46.666Z,4.97
2018-05-17T19:18:19.459Z,4.33
2018-05-17T19:20:49.450Z,4.90
2018-05-17T19:23:22.091Z,4.90
2018-05-17T19:25:51.224Z,4.70
2018-05-17T19:28:23.919Z,4.87
2018-05-17T19:30:52.456Z,4.87
2018-05-17T19:33:25.352Z,4.37
2018-05-17T19:35:53.839Z,5.07
2018-05-17T19:38:27.191Z,4.57
2018-05-17T19:40:56.074Z,5.17
2018-05-17T19:43:28.741Z,5.20
2018-05-17T19:45:57.258Z,4.97
2018-05-17T19:48:31.930Z,5.30
2018-05-17T19:51:00.943Z,4.97
2018-05-17T19:53:34.320Z,4.50
2018-05-17T19:56:04.190Z,4.43
2018-05-17T19:58:37.316Z,4.40
2018-05-17T20:01:06.832Z,5.03
2018-05-17T20:03:39.770Z,5.83
2018-05-17T20:06:09.093Z,4.77
2018-05-17T20:08:51.379Z,4.53
2018-05-17T20:11:20.678Z,5.13
2018-05-17T20:13:49.995Z,4.43
2018-05-17T20:16:19.235Z,5.33
2018-05-17T20:18:48.658Z,5.33
2018-05-17T20:21:18.235Z,6.50
2018-05-17T20:23:51.394Z,5.20
2018-05-17T20:26:20.638Z,6.23
2018-05-17T20:28:53.733Z,4.93
2018-05-17T20:31:22.212Z,5.40
2018-05-17T20:34:05.290Z,5.60
2018-05-17T20:36:35.001Z,5.70
2018-05-17T20:39:05.785Z,5.60
2018-05-17T20:41:34.271Z,5.70
2018-05-17T20:44:03.269Z,6.17
2018-05-17T20:46:32.160Z,5.80
2018-05-17T20:49:05.287Z,5.47
2018-05-17T20:51:34.746Z,5.23
2018-05-17T20:54:10.000Z,5.93
2018-05-17T20:56:39.648Z,5.33
2018-05-17T20:59:11.532Z,5.43
2018-05-17T21:01:41.130Z,5.43
2018-05-17T21:04:16.450Z,6.40
2018-05-17T21:06:46.035Z,5.43
2018-05-17T21:09:16.058Z,5.50
2018-05-17T21:11:44.641Z,5.90
2018-05-17T21:14:17.453Z,6.00
2018-05-17T21:16:47.094Z,5.57
2018-05-17T21:19:20.918Z,5.53
2018-05-17T21:21:50.218Z,6.60
2018-05-17T21:24:23.415Z,5.20
2018-05-17T21:26:52.681Z,6.00
2018-05-17T21:29:24.497Z,5.90
2018-05-17T21:31:53.850Z,5.80
2018-05-17T21:34:27.292Z,5.40
2018-05-17T21:36:57.247Z,5.23
2018-05-17T21:39:28.972Z,5.77
2018-05-17T21:41:58.601Z,6.00
2018-05-17T21:44:31.569Z,6.07
2018-05-17T21:47:01.168Z,6.77
2018-05-17T21:49:42.785Z,6.37
2018-05-17T21:52:13.726Z,5.77
2018-05-17T21:54:42.948Z,5.73
2018-05-17T21:57:14.427Z,5.93
2018-05-17T21:59:43.343Z,6.10
2018-05-17T22:02:14.824Z,6.00
2018-05-17T22:04:44.551Z,6.10
2018-05-17T22:07:14.767Z,6.30
2018-05-17T22:09:43.271Z,7.73
2018-05-17T22:12:13.836Z,7.17
2018-05-17T22:14:45.768Z,6.10
2018-05-17T22:17:15.691Z,6.50
2018-05-17T22:19:48.354Z,7.67
2018-05-17T22:22:18.443Z,6.70
2018-05-17T22:24:51.588Z,6.37
2018-05-17T22:27:20.818Z,6.73
2018-05-17T22:29:55.774Z,6.37
2018-05-17T22:32:25.357Z,6.60
2018-05-17T22:34:58.041Z,5.97
2018-05-17T22:37:27.844Z,7.03
2018-05-17T22:42:34.938Z,6.10
2018-05-17T22:45:03.422Z,8.60
2018-05-17T22:47:35.116Z,6.30
2018-05-17T22:50:06.367Z,6.90
2018-05-17T22:52:37.146Z,7.23
2018-05-17T22:55:07.499Z,6.63
2018-05-17T22:57:46.406Z,6.80
2018-05-17T23:00:17.343Z,7.80
2018-05-17T23:02:46.399Z,7.13
2018-05-17T23:05:16.800Z,7.00
2018-05-17T23:07:45.999Z,6.53
2018-05-17T23:10:16.756Z,6.30
2018-05-17T23:12:45.314Z,5.87
2018-05-17T23:15:19.874Z,6.27
2018-05-17T23:17:49.134Z,7.20
2018-05-17T23:20:21.379Z,6.97
2018-05-17T23:22:50.202Z,7.10
2018-05-17T23:25:22.990Z,6.63
2018-05-17T23:27:52.222Z,6.10
2018-05-17T23:30:24.963Z,6.73
2018-05-17T23:32:55.648Z,6.93
2018-05-17T23:35:28.066Z,7.10
2018-05-17T23:37:57.599Z,6.07
2018-05-17T23:41:44.066Z,6.13
2018-05-17T23:44:13.412Z,6.83
2018-05-17T23:46:42.940Z,6.60
2018-05-17T23:49:12.170Z,7.10
2018-05-17T23:51:40.935Z,6.83
2018-05-17T23:54:10.160Z,7.73
2018-05-17T23:56:38.671Z,6.23
2018-05-17T23:59:07.989Z,6.33
